sensor_id;sensor_type;location;lat;lon;timestamp;P1;durP1;ratioP1;P2;durP2;ratioP2
54599;SDS011;40500;51.084;16.958;2023-05-15T00:02:25;10.30;;;8.20;;
54599;SDS011;40500;51.084;16.958;2023-05-15T00:04:56;9.10;;;7.10;;
54599;SDS011;40500;51.084;16.958;2023-05-15T00:07:26;8.20;;;7.30;;
54599;SDS011;40500;51.084;16.958;2023-05-15T00:09:56;8.50;;;7.50;;
54599;SDS011;40500;51.084;16.958;2023-05-15T00:12:27;8.70;;;7.30;;
54599;SDS011;40500;51.084;16.958;2023-05-15T00:14:57;8.40;;;7.50;;
54599;SDS011;40500;51.084;16.958;2023-05-15T00:17:28;9.00;;;7.90;;
54599;SDS011;40500;51.084;16.958;2023-05-15T00:19:58;8.30;;;7.30;;
54599;SDS011;40500;51.084;16.958;2023-05-15T00:22:29;8.40;;;7.10;;
54599;SDS011;40500;51.084;16.958;2023-05-15T00:24:59;9.70;;;7.40;;
54599;SDS011;40500;51.084;16.958;2023-05-15T00:27:30;8.70;;;7.20;;
54599;SDS011;40500;51.084;16.958;2023-05-15T00:30:03;9.00;;;7.90;;
54599;SDS011;40500;51.084;16.958;2023-05-15T00:32:35;7.60;;;6.80;;
54599;SDS011;40500;51.084;16.958;2023-05-15T00:35:06;8.30;;;6.90;;
54599;SDS011;40500;51.084;16.958;2023-05-15T00:37:37;8.00;;;7.20;;
54599;SDS011;40500;51.084;16.958;2023-05-15T00:40:08;9.20;;;7.80;;
54599;SDS011;40500;51.084;16.958;2023-05-15T00:42:42;8.30;;;7.30;;
54599;SDS011;40500;51.084;16.958;2023-05-15T00:45:14;9.40;;;8.40;;
54599;SDS011;40500;51.084;16.958;2023-05-15T00:47:47;11.40;;;9.60;;
54599;SDS011;40500;51.084;16.958;2023-05-15T00:50:18;12.60;;;10.00;;
54599;SDS011;40500;51.084;16.958;2023-05-15T00:52:50;11.50;;;10.30;;
54599;SDS011;40500;51.084;16.958;2023-05-15T00:55:20;15.10;;;10.90;;
54599;SDS011;40500;51.084;16.958;2023-05-15T00:57:53;13.30;;;10.20;;
54599;SDS011;40500;51.084;16.958;2023-05-15T01:00:25;12.00;;;10.10;;
54599;SDS011;40500;51.084;16.958;2023-05-15T01:02:59;12.80;;;10.90;;
54599;SDS011;40500;51.084;16.958;2023-05-15T01:05:29;12.80;;;10.00;;
54599;SDS011;40500;51.084;16.958;2023-05-15T01:10:50;10.60;;;8.70;;
54599;SDS011;40500;51.084;16.958;2023-05-15T01:13:22;10.30;;;8.80;;
54599;SDS011;40500;51.084;16.958;2023-05-15T01:15:53;9.40;;;7.50;;
54599;SDS011;40500;51.084;16.958;2023-05-15T01:18:23;10.60;;;7.70;;
54599;SDS011;40500;51.084;16.958;2023-05-15T01:21:05;9.70;;;7.70;;
54599;SDS011;40500;51.084;16.958;2023-05-15T01:23:56;8.50;;;6.80;;
54599;SDS011;40500;51.084;16.958;2023-05-15T01:29:54;8.00;;;7.00;;
54599;SDS011;40500;51.084;16.958;2023-05-15T01:32:33;9.30;;;7.90;;
54599;SDS011;40500;51.084;16.958;2023-05-15T01:35:15;12.00;;;8.50;;
54599;SDS011;40500;51.084;16.958;2023-05-15T01:37:51;8.00;;;6.60;;
54599;SDS011;40500;51.084;16.958;2023-05-15T01:40:33;9.00;;;7.40;;
54599;SDS011;40500;51.084;16.958;2023-05-15T01:43:04;9.60;;;7.20;;
54599;SDS011;40500;51.084;16.958;2023-05-15T01:45:41;8.10;;;6.10;;
54599;SDS011;40500;51.084;16.958;2023-05-15T01:48:14;9.00;;;6.30;;
54599;SDS011;40500;51.084;16.958;2023-05-15T01:50:48;7.80;;;6.20;;
54599;SDS011;40500;51.084;16.958;2023-05-15T01:53:20;7.30;;;6.50;;
54599;SDS011;40500;51.084;16.958;2023-05-15T01:55:51;8.70;;;6.90;;
54599;SDS011;40500;51.084;16.958;2023-05-15T01:58:22;7.00;;;6.00;;
54599;SDS011;40500;51.084;16.958;2023-05-15T02:00:55;7.30;;;6.00;;
54599;SDS011;40500;51.084;16.958;2023-05-15T02:03:26;8.90;;;6.20;;
54599;SDS011;40500;51.084;16.958;2023-05-15T02:06:00;7.30;;;6.50;;
54599;SDS011;40500;51.084;16.958;2023-05-15T02:08:32;7.00;;;6.30;;
54599;SDS011;40500;51.084;16.958;2023-05-15T02:11:04;6.90;;;6.00;;
54599;SDS011;40500;51.084;16.958;2023-05-15T02:13:36;7.90;;;5.60;;
54599;SDS011;40500;51.084;16.958;2023-05-15T02:16:08;7.80;;;6.40;;
54599;SDS011;40500;51.084;16.958;2023-05-15T02:18:40;6.50;;;5.80;;
54599;SDS011;40500;51.084;16.958;2023-05-15T02:21:10;6.70;;;5.60;;
54599;SDS011;40500;51.084;16.958;2023-05-15T02:23:42;6.90;;;5.50;;
54599;SDS011;40500;51.084;16.958;2023-05-15T02:26:19;7.10;;;4.90;;
54599;SDS011;40500;51.084;16.958;2023-05-15T02:29:03;6.30;;;5.00;;
54599;SDS011;40500;51.084;16.958;2023-05-15T02:31:43;6.80;;;5.70;;
54599;SDS011;40500;51.084;16.958;2023-05-15T02:34:20;6.60;;;5.10;;
54599;SDS011;40500;51.084;16.958;2023-05-15T02:37:00;6.30;;;4.90;;
54599;SDS011;40500;51.084;16.958;2023-05-15T02:39:32;5.20;;;4.70;;
54599;SDS011;40500;51.084;16.958;2023-05-15T02:42:06;6.00;;;4.90;;
54599;SDS011;40500;51.084;16.958;2023-05-15T02:44:37;5.40;;;4.70;;
54599;SDS011;40500;51.084;16.958;2023-05-15T02:47:11;6.20;;;5.10;;
54599;SDS011;40500;51.084;16.958;2023-05-15T02:49:42;5.80;;;4.10;;
54599;SDS011;40500;51.084;16.958;2023-05-15T02:52:14;4.60;;;4.10;;
54599;SDS011;40500;51.084;16.958;2023-05-15T02:54:44;6.60;;;4.80;;
54599;SDS011;40500;51.084;16.958;2023-05-15T02:57:14;6.20;;;4.20;;
54599;SDS011;40500;51.084;16.958;2023-05-15T02:59:45;4.50;;;4.10;;
54599;SDS011;40500;51.084;16.958;2023-05-15T03:02:15;4.80;;;3.90;;
54599;SDS011;40500;51.084;16.958;2023-05-15T03:04:46;4.50;;;4.10;;
54599;SDS011;40500;51.084;16.958;2023-05-15T03:07:16;4.50;;;4.10;;
54599;SDS011;40500;51.084;16.958;2023-05-15T03:09:46;4.40;;;4.00;;
54599;SDS011;40500;51.084;16.958;2023-05-15T03:12:17;4.60;;;4.10;;
54599;SDS011;40500;51.084;16.958;2023-05-15T03:14:47;4.40;;;3.90;;
54599;SDS011;40500;51.084;16.958;2023-05-15T03:17:18;4.00;;;3.40;;
54599;SDS011;40500;51.084;16.958;2023-05-15T03:19:49;4.10;;;3.70;;
54599;SDS011;40500;51.084;16.958;2023-05-15T03:22:19;4.80;;;3.20;;
54599;SDS011;40500;51.084;16.958;2023-05-15T03:24:50;3.60;;;3.20;;
54599;SDS011;40500;51.084;16.958;2023-05-15T03:27:20;3.80;;;3.40;;
54599;SDS011;40500;51.084;16.958;2023-05-15T03:29:51;3.20;;;2.90;;
54599;SDS011;40500;51.084;16.958;2023-05-15T03:32:21;4.50;;;3.10;;
54599;SDS011;40500;51.084;16.958;2023-05-15T03:34:52;4.00;;;3.50;;
54599;SDS011;40500;51.084;16.958;2023-05-15T03:37:23;3.00;;;2.70;;
54599;SDS011;40500;51.084;16.958;2023-05-15T03:39:53;3.10;;;2.90;;
54599;SDS011;40500;51.084;16.958;2023-05-15T03:42:24;7.00;;;3.10;;
54599;SDS011;40500;51.084;16.958;2023-05-15T03:44:54;3.30;;;3.00;;
54599;SDS011;40500;51.084;16.958;2023-05-15T03:47:25;2.80;;;2.60;;
54599;SDS011;40500;51.084;16.958;2023-05-15T03:49:55;4.00;;;2.40;;
54599;SDS011;40500;51.084;16.958;2023-05-15T03:52:25;2.80;;;2.60;;
54599;SDS011;40500;51.084;16.958;2023-05-15T03:54:56;3.50;;;2.70;;
54599;SDS011;40500;51.084;16.958;2023-05-15T03:57:26;2.90;;;2.70;;
54599;SDS011;40500;51.084;16.958;2023-05-15T03:59:57;3.40;;;2.90;;
54599;SDS011;40500;51.084;16.958;2023-05-15T04:02:38;3.10;;;2.80;;
54599;SDS011;40500;51.084;16.958;2023-05-15T04:05:09;4.00;;;3.00;;
54599;SDS011;40500;51.084;16.958;2023-05-15T04:07:40;4.00;;;3.50;;
54599;SDS011;40500;51.084;16.958;2023-05-15T04:10:10;5.60;;;3.90;;
54599;SDS011;40500;51.084;16.958;2023-05-15T04:12:41;4.30;;;3.90;;
54599;SDS011;40500;51.084;16.958;2023-05-15T04:15:16;3.60;;;3.30;;
54599;SDS011;40500;51.084;16.958;2023-05-15T04:17:48;5.50;;;4.70;;
54599;SDS011;40500;51.084;16.958;2023-05-15T04:20:20;4.90;;;4.40;;
54599;SDS011;40500;51.084;16.958;2023-05-15T04:22:52;5.00;;;4.50;;
54599;SDS011;40500;51.084;16.958;2023-05-15T04:25:22;4.80;;;4.40;;
54599;SDS011;40500;51.084;16.958;2023-05-15T04:27:54;5.70;;;5.10;;
54599;SDS011;40500;51.084;16.958;2023-05-15T04:30:24;5.60;;;5.00;;
54599;SDS011;40500;51.084;16.958;2023-05-15T04:32:54;7.00;;;5.10;;
54599;SDS011;40500;51.084;16.958;2023-05-15T04:35:25;7.20;;;6.20;;
54599;SDS011;40500;51.084;16.958;2023-05-15T04:37:55;6.80;;;6.10;;
54599;SDS011;40500;51.084;16.958;2023-05-15T04:40:26;7.10;;;6.20;;
54599;SDS011;40500;51.084;16.958;2023-05-15T04:42:56;9.20;;;6.10;;
54599;SDS011;40500;51.084;16.958;2023-05-15T04:45:27;6.90;;;6.10;;
54599;SDS011;40500;51.084;16.958;2023-05-15T04:47:57;5.90;;;5.30;;
54599;SDS011;40500;51.084;16.958;2023-05-15T04:50:28;7.00;;;5.80;;
54599;SDS011;40500;51.084;16.958;2023-05-15T04:52:58;6.80;;;6.10;;
54599;SDS011;40500;51.084;16.958;2023-05-15T04:55:29;7.20;;;6.20;;
54599;SDS011;40500;51.084;16.958;2023-05-15T04:58:00;8.70;;;6.10;;
54599;SDS011;40500;51.084;16.958;2023-05-15T05:00:30;6.60;;;5.90;;
54599;SDS011;40500;51.084;16.958;2023-05-15T05:03:01;6.40;;;5.80;;
54599;SDS011;40500;51.084;16.958;2023-05-15T05:05:32;7.40;;;6.60;;
54599;SDS011;40500;51.084;16.958;2023-05-15T05:08:02;6.90;;;6.20;;
54599;SDS011;40500;51.084;16.958;2023-05-15T05:10:33;6.60;;;5.90;;
54599;SDS011;40500;51.084;16.958;2023-05-15T05:13:03;7.70;;;6.00;;
54599;SDS011;40500;51.084;16.958;2023-05-15T05:15:33;8.90;;;6.40;;
54599;SDS011;40500;51.084;16.958;2023-05-15T05:18:04;8.50;;;7.70;;
54599;SDS011;40500;51.084;16.958;2023-05-15T05:20:35;7.70;;;6.80;;
54599;SDS011;40500;51.084;16.958;2023-05-15T05:23:05;7.20;;;6.20;;
54599;SDS011;40500;51.084;16.958;2023-05-15T05:25:36;8.60;;;6.00;;
54599;SDS011;40500;51.084;16.958;2023-05-15T05:28:06;9.40;;;7.40;;
54599;SDS011;40500;51.084;16.958;2023-05-15T05:30:36;8.70;;;7.80;;
54599;SDS011;40500;51.084;16.958;2023-05-15T05:33:07;7.30;;;6.20;;
54599;SDS011;40500;51.084;16.958;2023-05-15T05:35:38;6.90;;;6.20;;
54599;SDS011;40500;51.084;16.958;2023-05-15T05:38:08;6.80;;;6.00;;
54599;SDS011;40500;51.084;16.958;2023-05-15T05:40:39;7.30;;;6.50;;
54599;SDS011;40500;51.084;16.958;2023-05-15T05:43:09;7.50;;;6.70;;
54599;SDS011;40500;51.084;16.958;2023-05-15T05:45:39;7.50;;;6.30;;
54599;SDS011;40500;51.084;16.958;2023-05-15T05:48:10;6.70;;;6.00;;
54599;SDS011;40500;51.084;16.958;2023-05-15T05:50:40;7.90;;;6.60;;
54599;SDS011;40500;51.084;16.958;2023-05-15T05:53:11;7.70;;;6.30;;
54599;SDS011;40500;51.084;16.958;2023-05-15T05:55:41;9.40;;;5.90;;
54599;SDS011;40500;51.084;16.958;2023-05-15T05:58:12;8.50;;;6.30;;
54599;SDS011;40500;51.084;16.958;2023-05-15T06:00:52;5.70;;;5.20;;
54599;SDS011;40500;51.084;16.958;2023-05-15T06:03:23;9.00;;;5.60;;
54599;SDS011;40500;51.084;16.958;2023-05-15T06:05:54;6.40;;;5.40;;
54599;SDS011;40500;51.084;16.958;2023-05-15T06:08:25;6.00;;;5.50;;
54599;SDS011;40500;51.084;16.958;2023-05-15T06:10:56;6.50;;;5.90;;
54599;SDS011;40500;51.084;16.958;2023-05-15T06:13:26;6.10;;;5.40;;
54599;SDS011;40500;51.084;16.958;2023-05-15T06:15:57;10.40;;;5.20;;
54599;SDS011;40500;51.084;16.958;2023-05-15T06:18:28;6.50;;;5.90;;
54599;SDS011;40500;51.084;16.958;2023-05-15T06:20:58;7.00;;;5.40;;
54599;SDS011;40500;51.084;16.958;2023-05-15T06:23:28;5.70;;;5.20;;
54599;SDS011;40500;51.084;16.958;2023-05-15T06:25:59;9.30;;;6.30;;
54599;SDS011;40500;51.084;16.958;2023-05-15T06:28:29;6.30;;;5.70;;
54599;SDS011;40500;51.084;16.958;2023-05-15T06:31:00;9.20;;;7.30;;
54599;SDS011;40500;51.084;16.958;2023-05-15T06:33:30;8.50;;;6.10;;
54599;SDS011;40500;51.084;16.958;2023-05-15T06:36:01;7.00;;;6.30;;
54599;SDS011;40500;51.084;16.958;2023-05-15T06:38:31;7.10;;;6.30;;
54599;SDS011;40500;51.084;16.958;2023-05-15T06:41:02;8.10;;;6.20;;
54599;SDS011;40500;51.084;16.958;2023-05-15T06:43:33;6.90;;;6.20;;
54599;SDS011;40500;51.084;16.958;2023-05-15T06:46:05;6.70;;;5.10;;
54599;SDS011;40500;51.084;16.958;2023-05-15T06:48:36;7.10;;;6.00;;
54599;SDS011;40500;51.084;16.958;2023-05-15T06:51:06;6.10;;;5.50;;
54599;SDS011;40500;51.084;16.958;2023-05-15T06:53:36;7.40;;;6.70;;
54599;SDS011;40500;51.084;16.958;2023-05-15T06:56:08;7.60;;;6.90;;
54599;SDS011;40500;51.084;16.958;2023-05-15T06:58:38;8.60;;;6.80;;
54599;SDS011;40500;51.084;16.958;2023-05-15T07:01:09;7.60;;;6.80;;
54599;SDS011;40500;51.084;16.958;2023-05-15T07:03:39;8.20;;;7.30;;
54599;SDS011;40500;51.084;16.958;2023-05-15T07:06:10;7.80;;;7.00;;
54599;SDS011;40500;51.084;16.958;2023-05-15T07:08:41;9.60;;;7.10;;
54599;SDS011;40500;51.084;16.958;2023-05-15T07:11:11;8.70;;;7.00;;
54599;SDS011;40500;51.084;16.958;2023-05-15T07:13:41;7.70;;;7.00;;
54599;SDS011;40500;51.084;16.958;2023-05-15T07:16:12;7.10;;;6.20;;
54599;SDS011;40500;51.084;16.958;2023-05-15T07:18:42;6.70;;;6.00;;
54599;SDS011;40500;51.084;16.958;2023-05-15T07:21:13;12.00;;;7.20;;
54599;SDS011;40500;51.084;16.958;2023-05-15T07:23:43;7.60;;;6.80;;
54599;SDS011;40500;51.084;16.958;2023-05-15T07:26:14;7.50;;;6.80;;
54599;SDS011;40500;51.084;16.958;2023-05-15T07:28:59;7.00;;;6.30;;
54599;SDS011;40500;51.084;16.958;2023-05-15T07:31:31;6.60;;;5.70;;
54599;SDS011;40500;51.084;16.958;2023-05-15T07:34:01;8.70;;;6.80;;
54599;SDS011;40500;51.084;16.958;2023-05-15T07:36:31;6.00;;;5.20;;
54599;SDS011;40500;51.084;16.958;2023-05-15T07:39:02;6.40;;;5.60;;
54599;SDS011;40500;51.084;16.958;2023-05-15T07:41:32;7.00;;;5.70;;
54599;SDS011;40500;51.084;16.958;2023-05-15T07:44:03;5.40;;;4.90;;
54599;SDS011;40500;51.084;16.958;2023-05-15T07:46:34;5.70;;;5.20;;
54599;SDS011;40500;51.084;16.958;2023-05-15T07:49:07;6.20;;;5.60;;
54599;SDS011;40500;51.084;16.958;2023-05-15T07:51:38;6.10;;;5.50;;
54599;SDS011;40500;51.084;16.958;2023-05-15T07:54:09;6.40;;;5.70;;
54599;SDS011;40500;51.084;16.958;2023-05-15T07:56:39;6.10;;;5.60;;
54599;SDS011;40500;51.084;16.958;2023-05-15T07:59:10;6.60;;;5.90;;
54599;SDS011;40500;51.084;16.958;2023-05-15T08:01:40;6.80;;;6.00;;
54599;SDS011;40500;51.084;16.958;2023-05-15T08:04:13;6.40;;;5.80;;
54599;SDS011;40500;51.084;16.958;2023-05-15T08:06:43;6.30;;;5.70;;
54599;SDS011;40500;51.084;16.958;2023-05-15T08:09:14;6.80;;;6.10;;
54599;SDS011;40500;51.084;16.958;2023-05-15T08:11:44;6.40;;;5.60;;
54599;SDS011;40500;51.084;16.958;2023-05-15T08:14:14;6.60;;;5.60;;
54599;SDS011;40500;51.084;16.958;2023-05-15T08:16:48;6.00;;;5.50;;
54599;SDS011;40500;51.084;16.958;2023-05-15T08:19:18;8.10;;;5.30;;
54599;SDS011;40500;51.084;16.958;2023-05-15T08:21:50;5.90;;;5.30;;
54599;SDS011;40500;51.084;16.958;2023-05-15T08:24:21;5.90;;;5.40;;
54599;SDS011;40500;51.084;16.958;2023-05-15T08:26:51;7.40;;;6.60;;
54599;SDS011;40500;51.084;16.958;2023-05-15T08:29:21;8.70;;;6.10;;
54599;SDS011;40500;51.084;16.958;2023-05-15T08:31:52;7.30;;;5.40;;
54599;SDS011;40500;51.084;16.958;2023-05-15T08:34:23;6.20;;;5.50;;
54599;SDS011;40500;51.084;16.958;2023-05-15T08:36:53;6.00;;;5.40;;
54599;SDS011;40500;51.084;16.958;2023-05-15T08:39:24;6.60;;;5.10;;
54599;SDS011;40500;51.084;16.958;2023-05-15T08:41:56;7.10;;;6.00;;
54599;SDS011;40500;51.084;16.958;2023-05-15T08:44:33;6.50;;;5.90;;
54599;SDS011;40500;51.084;16.958;2023-05-15T08:47:04;5.70;;;5.00;;
54599;SDS011;40500;51.084;16.958;2023-05-15T08:49:38;6.10;;;5.50;;
54599;SDS011;40500;51.084;16.958;2023-05-15T08:52:18;5.30;;;4.80;;
54599;SDS011;40500;51.084;16.958;2023-05-15T08:54:49;5.80;;;5.20;;
54599;SDS011;40500;51.084;16.958;2023-05-15T08:57:20;5.70;;;5.20;;
54599;SDS011;40500;51.084;16.958;2023-05-15T08:59:52;6.30;;;5.50;;
54599;SDS011;40500;51.084;16.958;2023-05-15T09:02:24;6.80;;;6.10;;
54599;SDS011;40500;51.084;16.958;2023-05-15T09:04:56;5.70;;;5.20;;
54599;SDS011;40500;51.084;16.958;2023-05-15T09:07:27;8.00;;;6.50;;
54599;SDS011;40500;51.084;16.958;2023-05-15T09:09:58;7.10;;;6.40;;
54599;SDS011;40500;51.084;16.958;2023-05-15T09:12:31;8.70;;;6.50;;
54599;SDS011;40500;51.084;16.958;2023-05-15T09:15:11;7.30;;;6.50;;
54599;SDS011;40500;51.084;16.958;2023-05-15T09:17:44;6.30;;;5.70;;
54599;SDS011;40500;51.084;16.958;2023-05-15T09:20:25;7.60;;;6.90;;
54599;SDS011;40500;51.084;16.958;2023-05-15T09:23:01;7.30;;;6.50;;
54599;SDS011;40500;51.084;16.958;2023-05-15T09:25:34;7.00;;;6.30;;
54599;SDS011;40500;51.084;16.958;2023-05-15T09:28:07;8.20;;;6.90;;
54599;SDS011;40500;51.084;16.958;2023-05-15T09:30:39;7.60;;;6.80;;
54599;SDS011;40500;51.084;16.958;2023-05-15T09:33:10;7.10;;;6.40;;
54599;SDS011;40500;51.084;16.958;2023-05-15T09:35:44;7.00;;;6.30;;
54599;SDS011;40500;51.084;16.958;2023-05-15T09:38:14;8.50;;;6.70;;
54599;SDS011;40500;51.084;16.958;2023-05-15T09:40:45;8.80;;;7.00;;
54599;SDS011;40500;51.084;16.958;2023-05-15T09:43:22;8.00;;;7.20;;
54599;SDS011;40500;51.084;16.958;2023-05-15T09:45:55;7.70;;;6.00;;
54599;SDS011;40500;51.084;16.958;2023-05-15T09:48:26;6.60;;;6.00;;
54599;SDS011;40500;51.084;16.958;2023-05-15T09:50:58;7.00;;;6.30;;
54599;SDS011;40500;51.084;16.958;2023-05-15T09:53:34;6.50;;;5.80;;
54599;SDS011;40500;51.084;16.958;2023-05-15T09:56:05;7.60;;;6.30;;
54599;SDS011;40500;51.084;16.958;2023-05-15T09:58:37;6.50;;;5.70;;
54599;SDS011;40500;51.084;16.958;2023-05-15T10:01:19;6.50;;;5.90;;
54599;SDS011;40500;51.084;16.958;2023-05-15T10:03:59;5.90;;;5.40;;
54599;SDS011;40500;51.084;16.958;2023-05-15T10:06:34;6.30;;;5.70;;
54599;SDS011;40500;51.084;16.958;2023-05-15T10:09:09;7.30;;;5.40;;
54599;SDS011;40500;51.084;16.958;2023-05-15T10:11:41;5.80;;;4.50;;
54599;SDS011;40500;51.084;16.958;2023-05-15T10:14:17;6.30;;;5.40;;
54599;SDS011;40500;51.084;16.958;2023-05-15T10:16:50;5.50;;;4.60;;
54599;SDS011;40500;51.084;16.958;2023-05-15T10:19:23;4.70;;;4.10;;
54599;SDS011;40500;51.084;16.958;2023-05-15T10:21:56;5.00;;;4.50;;
54599;SDS011;40500;51.084;16.958;2023-05-15T10:24:28;4.80;;;4.40;;
54599;SDS011;40500;51.084;16.958;2023-05-15T10:27:00;6.10;;;4.30;;
54599;SDS011;40500;51.084;16.958;2023-05-15T10:29:33;5.60;;;4.00;;
54599;SDS011;40500;51.084;16.958;2023-05-15T10:32:05;4.60;;;3.50;;
54599;SDS011;40500;51.084;16.958;2023-05-15T10:34:37;4.60;;;3.90;;
54599;SDS011;40500;51.084;16.958;2023-05-15T10:37:07;3.40;;;3.10;;
54599;SDS011;40500;51.084;16.958;2023-05-15T10:39:40;4.50;;;3.60;;
54599;SDS011;40500;51.084;16.958;2023-05-15T10:42:11;6.40;;;3.20;;
54599;SDS011;40500;51.084;16.958;2023-05-15T10:44:42;4.50;;;2.70;;
54599;SDS011;40500;51.084;16.958;2023-05-15T10:47:13;4.80;;;3.90;;
54599;SDS011;40500;51.084;16.958;2023-05-15T10:49:43;5.50;;;4.20;;
54599;SDS011;40500;51.084;16.958;2023-05-15T10:52:13;4.70;;;4.30;;
54599;SDS011;40500;51.084;16.958;2023-05-15T10:54:45;4.70;;;4.30;;
54599;SDS011;40500;51.084;16.958;2023-05-15T10:57:15;4.40;;;4.00;;
54599;SDS011;40500;51.084;16.958;2023-05-15T10:59:45;4.70;;;4.30;;
54599;SDS011;40500;51.084;16.958;2023-05-15T11:02:20;4.50;;;4.00;;
54599;SDS011;40500;51.084;16.958;2023-05-15T11:04:56;6.40;;;5.00;;
54599;SDS011;40500;51.084;16.958;2023-05-15T11:07:27;4.90;;;4.20;;
54599;SDS011;40500;51.084;16.958;2023-05-15T11:09:57;6.50;;;4.20;;
54599;SDS011;40500;51.084;16.958;2023-05-15T11:12:53;4.60;;;4.20;;
54599;SDS011;40500;51.084;16.958;2023-05-15T11:15:25;3.00;;;2.80;;
54599;SDS011;40500;51.084;16.958;2023-05-15T11:18:08;3.90;;;3.60;;
54599;SDS011;40500;51.084;16.958;2023-05-15T11:20:40;4.30;;;3.40;;
54599;SDS011;40500;51.084;16.958;2023-05-15T11:23:37;3.80;;;3.50;;
54599;SDS011;40500;51.084;16.958;2023-05-15T11:26:08;3.60;;;3.30;;
54599;SDS011;40500;51.084;16.958;2023-05-15T11:28:42;3.60;;;3.30;;
54599;SDS011;40500;51.084;16.958;2023-05-15T11:31:13;3.10;;;2.80;;
54599;SDS011;40500;51.084;16.958;2023-05-15T11:33:44;3.80;;;3.50;;
54599;SDS011;40500;51.084;16.958;2023-05-15T11:36:19;3.00;;;2.80;;
54599;SDS011;40500;51.084;16.958;2023-05-15T11:38:53;3.40;;;3.10;;
54599;SDS011;40500;51.084;16.958;2023-05-15T11:41:23;6.00;;;3.00;;
54599;SDS011;40500;51.084;16.958;2023-05-15T11:44:00;3.50;;;2.20;;
54599;SDS011;40500;51.084;16.958;2023-05-15T11:46:30;2.40;;;2.20;;
54599;SDS011;40500;51.084;16.958;2023-05-15T11:49:02;2.80;;;2.60;;
54599;SDS011;40500;51.084;16.958;2023-05-15T11:51:33;2.60;;;2.40;;
54599;SDS011;40500;51.084;16.958;2023-05-15T11:54:10;2.80;;;2.60;;
54599;SDS011;40500;51.084;16.958;2023-05-15T11:56:42;2.50;;;2.30;;
54599;SDS011;40500;51.084;16.958;2023-05-15T11:59:13;3.20;;;2.60;;
54599;SDS011;40500;51.084;16.958;2023-05-15T12:01:44;3.60;;;2.40;;
54599;SDS011;40500;51.084;16.958;2023-05-15T12:04:15;2.90;;;2.60;;
54599;SDS011;40500;51.084;16.958;2023-05-15T12:06:46;2.80;;;2.60;;
54599;SDS011;40500;51.084;16.958;2023-05-15T12:09:17;2.90;;;2.60;;
54599;SDS011;40500;51.084;16.958;2023-05-15T12:11:49;3.00;;;2.80;;
54599;SDS011;40500;51.084;16.958;2023-05-15T12:14:26;2.90;;;2.70;;
54599;SDS011;40500;51.084;16.958;2023-05-15T12:16:59;3.00;;;2.70;;
54599;SDS011;40500;51.084;16.958;2023-05-15T12:19:30;2.90;;;2.70;;
54599;SDS011;40500;51.084;16.958;2023-05-15T12:22:04;2.50;;;2.20;;
54599;SDS011;40500;51.084;16.958;2023-05-15T12:24:37;2.40;;;2.20;;
54599;SDS011;40500;51.084;16.958;2023-05-15T12:27:10;2.40;;;2.20;;
54599;SDS011;40500;51.084;16.958;2023-05-15T12:29:42;2.40;;;1.80;;
54599;SDS011;40500;51.084;16.958;2023-05-15T12:32:13;1.90;;;1.50;;
54599;SDS011;40500;51.084;16.958;2023-05-15T12:34:44;1.70;;;1.60;;
54599;SDS011;40500;51.084;16.958;2023-05-15T12:37:17;2.00;;;1.80;;
54599;SDS011;40500;51.084;16.958;2023-05-15T12:39:53;2.50;;;1.60;;
54599;SDS011;40500;51.084;16.958;2023-05-15T12:42:28;1.50;;;1.40;;
54599;SDS011;40500;51.084;16.958;2023-05-15T12:44:59;2.10;;;1.40;;
54599;SDS011;40500;51.084;16.958;2023-05-15T12:47:29;3.00;;;1.40;;
54599;SDS011;40500;51.084;16.958;2023-05-15T12:49:59;1.60;;;1.50;;
54599;SDS011;40500;51.084;16.958;2023-05-15T12:52:30;3.50;;;1.90;;
54599;SDS011;40500;51.084;16.958;2023-05-15T12:55:00;5.00;;;1.80;;
54599;SDS011;40500;51.084;16.958;2023-05-15T12:57:31;6.10;;;2.40;;
54599;SDS011;40500;51.084;16.958;2023-05-15T13:00:03;2.30;;;1.70;;
54599;SDS011;40500;51.084;16.958;2023-05-15T13:02:38;2.80;;;1.90;;
54599;SDS011;40500;51.084;16.958;2023-05-15T13:05:10;3.90;;;2.10;;
54599;SDS011;40500;51.084;16.958;2023-05-15T13:07:41;1.90;;;1.70;;
54599;SDS011;40500;51.084;16.958;2023-05-15T13:10:12;2.80;;;2.00;;
54599;SDS011;40500;51.084;16.958;2023-05-15T13:12:44;7.70;;;3.60;;
54599;SDS011;40500;51.084;16.958;2023-05-15T13:15:25;2.80;;;2.50;;
54599;SDS011;40500;51.084;16.958;2023-05-15T13:17:59;2.40;;;2.20;;
54599;SDS011;40500;51.084;16.958;2023-05-15T13:20:32;7.00;;;2.50;;
54599;SDS011;40500;51.084;16.958;2023-05-15T13:23:05;3.10;;;2.00;;
54599;SDS011;40500;51.084;16.958;2023-05-15T13:25:36;4.30;;;2.30;;
54599;SDS011;40500;51.084;16.958;2023-05-15T13:28:07;2.90;;;2.20;;
54599;SDS011;40500;51.084;16.958;2023-05-15T13:30:38;1.90;;;1.70;;
54599;SDS011;40500;51.084;16.958;2023-05-15T13:33:10;2.60;;;2.20;;
54599;SDS011;40500;51.084;16.958;2023-05-15T13:35:41;5.50;;;2.20;;
54599;SDS011;40500;51.084;16.958;2023-05-15T13:38:11;3.00;;;2.70;;
54599;SDS011;40500;51.084;16.958;2023-05-15T13:40:42;2.90;;;2.50;;
54599;SDS011;40500;51.084;16.958;2023-05-15T13:43:12;2.90;;;2.50;;
54599;SDS011;40500;51.084;16.958;2023-05-15T13:45:43;3.50;;;2.70;;
54599;SDS011;40500;51.084;16.958;2023-05-15T13:48:13;2.90;;;2.70;;
54599;SDS011;40500;51.084;16.958;2023-05-15T13:50:44;3.60;;;3.30;;
54599;SDS011;40500;51.084;16.958;2023-05-15T13:53:14;3.20;;;2.70;;
54599;SDS011;40500;51.084;16.958;2023-05-15T13:55:45;3.20;;;2.60;;
54599;SDS011;40500;51.084;16.958;2023-05-15T13:58:16;2.30;;;2.10;;
54599;SDS011;40500;51.084;16.958;2023-05-15T14:00:47;4.70;;;2.40;;
54599;SDS011;40500;51.084;16.958;2023-05-15T14:03:17;2.20;;;2.10;;
54599;SDS011;40500;51.084;16.958;2023-05-15T14:05:48;3.30;;;2.70;;
54599;SDS011;40500;51.084;16.958;2023-05-15T14:08:19;2.80;;;2.50;;
54599;SDS011;40500;51.084;16.958;2023-05-15T14:10:49;2.80;;;2.60;;
54599;SDS011;40500;51.084;16.958;2023-05-15T14:13:20;2.60;;;2.40;;
54599;SDS011;40500;51.084;16.958;2023-05-15T14:15:51;3.50;;;2.70;;
54599;SDS011;40500;51.084;16.958;2023-05-15T14:18:21;2.60;;;2.40;;
54599;SDS011;40500;51.084;16.958;2023-05-15T14:20:53;2.90;;;2.60;;
54599;SDS011;40500;51.084;16.958;2023-05-15T14:23:23;2.90;;;2.60;;
54599;SDS011;40500;51.084;16.958;2023-05-15T14:25:54;2.20;;;2.00;;
54599;SDS011;40500;51.084;16.958;2023-05-15T14:28:24;3.40;;;2.50;;
54599;SDS011;40500;51.084;16.958;2023-05-15T14:30:54;2.60;;;2.40;;
54599;SDS011;40500;51.084;16.958;2023-05-15T14:33:25;2.40;;;2.20;;
54599;SDS011;40500;51.084;16.958;2023-05-15T14:35:55;2.50;;;2.30;;
54599;SDS011;40500;51.084;16.958;2023-05-15T14:38:27;2.30;;;2.10;;
54599;SDS011;40500;51.084;16.958;2023-05-15T14:40:57;2.30;;;2.10;;
54599;SDS011;40500;51.084;16.958;2023-05-15T14:43:28;2.60;;;2.40;;
54599;SDS011;40500;51.084;16.958;2023-05-15T14:45:58;2.10;;;1.90;;
54599;SDS011;40500;51.084;16.958;2023-05-15T14:48:29;3.30;;;2.30;;
54599;SDS011;40500;51.084;16.958;2023-05-15T14:51:00;2.50;;;2.30;;
54599;SDS011;40500;51.084;16.958;2023-05-15T14:53:30;2.20;;;2.10;;
54599;SDS011;40500;51.084;16.958;2023-05-15T14:56:02;2.00;;;1.90;;
54599;SDS011;40500;51.084;16.958;2023-05-15T14:58:33;2.90;;;2.40;;
54599;SDS011;40500;51.084;16.958;2023-05-15T15:01:03;3.60;;;2.50;;
54599;SDS011;40500;51.084;16.958;2023-05-15T15:03:33;3.30;;;2.50;;
54599;SDS011;40500;51.084;16.958;2023-05-15T15:06:04;2.80;;;2.50;;
54599;SDS011;40500;51.084;16.958;2023-05-15T15:08:35;3.20;;;2.90;;